Galeton, Colorado
Current Conditions -  °F | °C
As of 6:35 PM on Tuesday 25 Nov 2014 (Local Time) from KGXY Reporting Station
Clear Clear  
Wind Chill: 38°   Ceiling: Unl
Heat Index: 46°   Visibility: 10mi
Dew Point: 21°   Wind: 24mph
Humidity: 37%   Direction: 310°NW
Pressure: 29.89"   Gusts: 31mph
Location:  40.52°N, 104.59°W
Report Text: KGXY 260135Z AUTO 31021G27KT 10SM CLR 08/M06 A2989 RMK AO1
Loading
Personal Weather Stations






























Interactive Weather Map New forecast layout! Learn more

10-Day Weather Forecast

Advertisements
Track Severe Weather on mobile